Time;durP1;ratioP1;P1;durP2;ratioP2;P2;SDS_P1;SDS_P2;PMS_P1;PMS_P2;Temp;Humidity;BMP_temperature;BMP_pressure;BME280_temperature;BME280_humidity;BME280_pressure;Samples;Min_cycle;Max_cycle;Signal;HPM_P1;HPM_P2
2023/02/21 02:15:18;;;;;;;3.15;2.85;;;9.50;99.90;;;;;;4933341;29;20233;-81
2023/02/21 02:18:09;;;;;;;2.80;2.60;;;9.50;99.90;;;;;;4936898;29;20301;-81
2023/02/21 02:21:05;;;;;;;1.83;1.73;;;9.50;99.90;;;;;;4923340;29;20304;-81
2023/02/21 02:23:49;;;;;;;2.45;2.00;;;9.50;99.90;;;;;;4923637;29;20441;-84
2023/02/21 02:26:54;;;;;;;2.65;2.45;;;9.50;99.90;;;;;;4924435;29;20485;-82
2023/02/21 02:29:36;;;;;;;2.15;1.95;;;9.50;99.90;;;;;;4919068;29;20212;-84
2023/02/21 02:32:20;;;;;;;2.38;1.88;;;9.50;99.90;;;;;;4925215;29;20589;-84
2023/02/21 02:35:07;;;;;;;1.85;1.55;;;9.50;99.90;;;;;;4927243;29;20283;-84
2023/02/21 02:37:51;;;;;;;1.40;1.30;;;9.50;99.90;;;;;;4937286;29;20243;-83
2023/02/21 02:40:58;;;;;;;5.22;2.10;;;9.50;99.90;;;;;;4929363;29;20215;-81
2023/02/21 02:43:31;;;;;;;3.80;2.30;;;9.50;99.90;;;;;;4917705;29;20215;-83
2023/02/21 02:46:01;;;;;;;2.42;1.50;;;9.50;99.90;;;;;;4924368;29;20670;-80
2023/02/21 02:48:38;;;;;;;2.65;2.00;;;9.50;99.90;;;;;;4922707;29;20218;-81
2023/02/21 02:51:09;;;;;;;3.50;1.52;;;9.50;99.90;;;;;;4927389;29;20515;-82
2023/02/21 02:53:36;;;;;;;5.43;2.20;;;9.50;99.90;;;;;;4925096;29;20212;-82
2023/02/21 02:56:10;;;;;;;2.58;2.38;;;9.50;99.90;;;;;;4928069;29;20274;-84
2023/02/21 02:58:48;;;;;;;2.10;1.75;;;9.50;99.90;;;;;;4927320;29;20217;-82
2023/02/21 03:01:34;;;;;;;1.60;1.50;;;9.50;99.90;;;;;;4924264;29;20389;-84
2023/02/21 03:04:24;;;;;;;2.67;1.70;;;9.50;99.90;;;;;;4937468;29;20207;-83
2023/02/21 03:07:41;;;;;;;1.88;1.45;;;9.50;99.90;;;;;;4929782;29;20267;-82
2023/02/21 03:10:37;;;;;;;1.73;1.63;;;9.50;99.90;;;;;;4887772;29;20221;-82
2023/02/21 03:13:32;;;;;;;2.70;1.40;;;9.50;99.90;;;;;;4894910;29;20209;-82
2023/02/21 03:16:14;;;;;;;2.50;2.03;;;9.50;99.90;;;;;;4916121;29;20220;-83
2023/02/21 03:18:55;;;;;;;3.00;1.83;;;9.50;99.90;;;;;;4929001;29;20212;-82
2023/02/21 03:21:29;;;;;;;3.28;2.33;;;9.60;99.90;;;;;;4937359;29;20214;-81
2023/02/21 03:24:00;;;;;;;3.55;2.13;;;9.50;99.90;;;;;;4934954;29;20247;-83
2023/02/21 03:26:32;;;;;;;2.20;1.92;;;9.60;99.90;;;;;;4935560;29;20217;-82
2023/02/21 03:29:03;;;;;;;3.90;1.98;;;9.50;99.90;;;;;;4932290;29;20215;-82
2023/02/21 03:31:37;;;;;;;2.30;2.08;;;9.50;99.90;;;;;;4937037;29;20219;-83
2023/02/21 03:34:04;;;;;;;2.80;2.15;;;9.60;99.90;;;;;;4935787;29;20192;-81
2023/02/21 03:36:32;;;;;;;3.33;1.98;;;9.60;99.90;;;;;;4931933;29;20221;-82
2023/02/21 03:38:59;;;;;;;3.60;1.95;;;9.60;99.90;;;;;;4945720;29;20219;-83
2023/02/21 03:41:25;;;;;;;3.35;2.78;;;9.60;99.90;;;;;;4935938;29;20392;-83
2023/02/21 03:43:54;;;;;;;2.70;2.50;;;9.50;99.90;;;;;;4930649;29;20240;-84
2023/02/21 03:46:21;;;;;;;2.83;2.53;;;9.50;99.90;;;;;;4928651;29;20215;-83
2023/02/21 03:48:48;;;;;;;3.03;2.50;;;9.50;99.90;;;;;;4938392;29;20214;-81
2023/02/21 03:51:15;;;;;;;3.13;1.85;;;9.60;99.90;;;;;;4930405;29;20201;-81
2023/02/21 03:53:42;;;;;;;2.60;1.98;;;9.60;99.90;;;;;;4927704;29;20519;-84
2023/02/21 03:56:09;;;;;;;2.30;1.95;;;9.60;99.90;;;;;;4929459;29;20211;-82
2023/02/21 03:58:36;;;;;;;3.25;2.80;;;9.50;99.90;;;;;;4927277;29;20212;-84
2023/02/21 04:01:04;;;;;;;4.53;2.75;;;9.60;99.90;;;;;;4921749;29;20315;-81
2023/02/21 04:03:31;;;;;;;5.72;2.45;;;9.50;99.90;;;;;;4923634;29;20212;-82
2023/02/21 04:05:58;;;;;;;2.78;2.58;;;9.60;99.90;;;;;;4929242;29;20215;-81
2023/02/21 04:08:25;;;;;;;5.00;2.72;;;9.70;99.90;;;;;;4925158;29;20270;-81
2023/02/21 04:10:52;;;;;;;2.50;2.30;;;9.60;99.90;;;;;;4929792;29;20262;-82
2023/02/21 04:13:20;;;;;;;3.10;2.63;;;9.70;99.90;;;;;;4921391;29;20223;-82
2023/02/21 04:15:48;;;;;;;4.95;3.80;;;9.60;99.90;;;;;;4930384;29;20214;-82
2023/02/21 04:18:15;;;;;;;3.20;2.90;;;9.60;99.90;;;;;;4922369;29;20271;-83
2023/02/21 04:20:42;;;;;;;3.85;3.13;;;9.60;99.90;;;;;;4924883;29;20215;-82
2023/02/21 04:23:09;;;;;;;4.03;3.67;;;9.50;99.90;;;;;;4930473;29;20212;-81
2023/02/21 04:25:36;;;;;;;4.65;2.80;;;9.60;99.90;;;;;;4927374;29;20215;-82
2023/02/21 04:28:03;;;;;;;3.42;2.78;;;9.70;99.90;;;;;;4927053;29;20517;-83
2023/02/21 04:30:30;;;;;;;3.40;3.10;;;9.70;99.90;;;;;;4929039;29;20508;-82
2023/02/21 04:32:58;;;;;;;3.55;2.97;;;9.60;99.90;;;;;;4943332;29;20238;-83
2023/02/21 04:35:25;;;;;;;9.40;3.83;;;9.70;99.90;;;;;;4936471;29;20215;-83
2023/02/21 04:37:51;;;;;;;2.97;2.60;;;9.60;99.90;;;;;;4927867;29;20294;-80
2023/02/21 04:40:19;;;;;;;4.47;3.60;;;9.70;99.90;;;;;;4928011;29;20207;-81
2023/02/21 04:42:45;;;;;;;16.35;10.52;;;9.70;99.90;;;;;;4933407;29;20220;-83
2023/02/21 04:45:12;;;;;;;4.13;3.72;;;9.70;99.90;;;;;;4927985;29;20271;-82
2023/02/21 04:47:42;;;;;;;4.82;3.45;;;9.60;99.90;;;;;;4924114;29;20208;-84
2023/02/21 04:50:12;;;;;;;5.35;4.85;;;9.70;99.90;;;;;;4938783;29;20215;-86
2023/02/21 04:52:39;;;;;;;7.15;3.65;;;9.60;99.90;;;;;;4927621;29;20215;-83
2023/02/21 04:55:07;;;;;;;4.45;3.80;;;9.60;99.90;;;;;;4932099;29;20219;-84
2023/02/21 04:57:34;;;;;;;4.97;4.22;;;9.50;99.90;;;;;;4932673;29;20239;-85
2023/02/21 05:00:05;;;;;;;6.20;3.78;;;9.60;99.90;;;;;;4929298;29;20220;-83
2023/02/21 05:02:32;;;;;;;5.53;3.97;;;9.30;99.90;;;;;;4923001;29;20235;-81
2023/02/21 05:04:59;;;;;;;3.70;3.20;;;9.20;99.90;;;;;;4925812;29;20619;-83
2023/02/21 05:07:26;;;;;;;4.90;4.40;;;9.10;99.90;;;;;;4934848;29;20253;-84
2023/02/21 05:09:53;;;;;;;4.70;4.03;;;9.30;99.90;;;;;;4938327;29;20226;-80
2023/02/21 05:12:20;;;;;;;5.35;4.30;;;9.10;99.90;;;;;;4932642;28;20587;-81
2023/02/21 05:14:47;;;;;;;7.82;4.82;;;9.10;99.90;;;;;;4928929;29;20219;-83
2023/02/21 05:17:14;;;;;;;4.90;4.30;;;9.20;99.90;;;;;;4931724;29;20236;-82
2023/02/21 05:19:41;;;;;;;4.60;3.40;;;9.10;99.90;;;;;;4924217;29;20219;-82
2023/02/21 05:22:09;;;;;;;7.43;4.90;;;9.20;99.90;;;;;;4937893;29;20592;-82
2023/02/21 05:24:43;;;;;;;6.07;4.60;;;9.10;99.90;;;;;;4932197;29;20223;-81
2023/02/21 05:27:14;;;;;;;7.68;6.50;;;9.10;99.90;;;;;;4932800;29;20274;-84
2023/02/21 05:29:45;;;;;;;5.82;4.35;;;9.20;99.90;;;;;;4932289;29;20410;-83
2023/02/21 05:32:12;;;;;;;7.32;4.63;;;9.20;99.90;;;;;;4923906;29;20227;-81
2023/02/21 05:34:43;;;;;;;6.00;4.60;;;9.30;99.90;;;;;;4930267;29;20762;-83
2023/02/21 05:37:10;;;;;;;6.60;5.15;;;9.20;99.90;;;;;;4926491;29;20330;-83
2023/02/21 05:39:38;;;;;;;12.38;5.40;;;9.30;99.90;;;;;;4925384;29;20278;-82
2023/02/21 05:42:06;;;;;;;6.15;5.07;;;9.40;99.90;;;;;;4920917;29;20567;-82
2023/02/21 05:44:34;;;;;;;4.97;4.22;;;9.40;99.90;;;;;;4932112;29;20207;-81
2023/02/21 05:47:01;;;;;;;5.47;4.85;;;9.40;99.90;;;;;;4933911;29;20576;-82
2023/02/21 05:49:28;;;;;;;5.15;4.53;;;9.50;99.90;;;;;;4929789;29;20453;-86
2023/02/21 05:51:55;;;;;;;5.53;4.97;;;9.40;99.90;;;;;;4926248;29;20259;-83
2023/02/21 05:54:22;;;;;;;6.68;4.50;;;9.50;99.90;;;;;;4924317;29;20270;-86
2023/02/21 05:56:50;;;;;;;7.15;5.47;;;9.50;99.90;;;;;;4923874;29;20291;-85
2023/02/21 05:59:19;;;;;;;5.50;4.07;;;9.50;99.90;;;;;;4931586;29;20216;-83
2023/02/21 06:01:47;;;;;;;6.75;4.32;;;9.60;99.90;;;;;;4944257;29;20230;-84
2023/02/21 06:04:14;;;;;;;6.88;5.47;;;9.60;99.90;;;;;;4929084;29;20222;-86
2023/02/21 06:06:41;;;;;;;8.27;5.82;;;9.80;99.90;;;;;;4927513;29;20208;-85
2023/02/21 06:09:09;;;;;;;5.15;4.65;;;9.60;99.90;;;;;;4927873;29;20228;-86
2023/02/21 06:11:38;;;;;;;8.95;5.57;;;9.50;99.90;;;;;;4941920;29;20239;-85
2023/02/21 06:14:07;;;;;;;6.80;6.13;;;9.50;99.90;;;;;;4928786;29;20216;-85
2023/02/21 06:16:36;;;;;;;5.38;4.85;;;9.50;99.90;;;;;;4933675;29;20259;-84
2023/02/21 06:19:06;;;;;;;6.60;5.32;;;9.40;99.90;;;;;;4916655;29;20212;-84
2023/02/21 06:21:34;;;;;;;6.90;5.07;;;9.20;99.90;;;;;;4919086;29;20218;-84
2023/02/21 06:24:02;;;;;;;6.43;5.57;;;9.20;99.90;;;;;;4920982;29;20567;-82
2023/02/21 06:26:28;;;;;;;8.00;7.10;;;9.10;99.90;;;;;;4929065;29;20791;-80
2023/02/21 06:28:55;;;;;;;6.22;5.28;;;9.20;99.90;;;;;;4929364;29;20216;-82
2023/02/21 06:31:22;;;;;;;6.88;5.65;;;9.10;99.90;;;;;;4925151;29;20206;-83
2023/02/21 06:33:50;;;;;;;5.57;5.03;;;9.20;99.90;;;;;;4928797;29;20230;-81
2023/02/21 06:36:20;;;;;;;8.38;6.00;;;9.20;99.90;;;;;;4931236;29;20220;-82
2023/02/21 06:38:50;;;;;;;8.77;6.30;;;9.20;99.90;;;;;;4933645;29;20243;-80
2023/02/21 06:41:19;;;;;;;11.15;6.80;;;9.20;99.90;;;;;;4934857;29;20218;-81
2023/02/21 06:43:48;;;;;;;6.70;5.60;;;9.10;99.90;;;;;;4931208;29;20212;-82
2023/02/21 06:46:23;;;;;;;7.47;5.97;;;9.20;99.90;;;;;;4930470;29;20256;-81
2023/02/21 06:48:51;;;;;;;8.63;6.65;;;9.30;99.90;;;;;;4931126;29;20534;-82
2023/02/21 06:51:18;;;;;;;13.38;6.78;;;9.30;99.90;;;;;;4920974;29;20212;-80
2023/02/21 06:53:49;;;;;;;9.20;6.85;;;9.30;99.90;;;;;;4922247;29;20264;-81
2023/02/21 06:56:16;;;;;;;7.88;5.70;;;9.40;99.90;;;;;;4929412;29;20558;-82
2023/02/21 06:58:43;;;;;;;7.97;7.07;;;9.50;99.90;;;;;;4933030;29;20431;-81
2023/02/21 07:01:10;;;;;;;7.28;6.15;;;9.60;99.90;;;;;;4920750;29;20713;-81
2023/02/21 07:03:42;;;;;;;7.40;5.72;;;9.60;99.90;;;;;;4927738;29;20258;-80
2023/02/21 07:06:09;;;;;;;8.63;6.07;;;9.80;99.90;;;;;;4931441;29;20244;-81
2023/02/21 07:08:36;;;;;;;7.40;6.35;;;9.80;99.90;;;;;;4924922;29;20207;-81
2023/02/21 07:11:04;;;;;;;8.85;6.63;;;10.00;99.90;;;;;;4933735;29;20256;-80
2023/02/21 07:13:32;;;;;;;8.05;6.40;;;9.90;99.90;;;;;;4916633;29;20235;-81
2023/02/21 07:16:00;;;;;;;8.65;6.43;;;9.90;99.90;;;;;;4922498;29;20214;-81
2023/02/21 07:18:27;;;;;;;9.27;6.90;;;10.10;99.90;;;;;;4920251;29;20294;-82
2023/02/21 07:20:55;;;;;;;7.82;6.93;;;10.10;99.90;;;;;;4922156;29;20314;-81
2023/02/21 07:23:22;;;;;;;9.27;6.40;;;10.20;99.90;;;;;;4920101;29;20877;-81
2023/02/21 07:25:49;;;;;;;9.73;5.53;;;10.20;99.90;;;;;;4917040;29;20220;-82
2023/02/21 07:28:16;;;;;;;6.93;6.22;;;10.20;99.90;;;;;;4920870;29;20516;-83
2023/02/21 07:30:43;;;;;;;7.80;5.90;;;10.40;99.90;;;;;;4925887;29;20256;-81
2023/02/21 07:33:10;;;;;;;9.25;7.07;;;10.60;99.90;;;;;;4924536;29;20257;-82
2023/02/21 07:35:37;;;;;;;8.75;6.60;;;10.60;99.90;;;;;;4918264;29;20219;-84
2023/02/21 07:38:04;;;;;;;7.03;5.03;;;10.40;99.90;;;;;;4931693;29;20255;-85
2023/02/21 07:40:31;;;;;;;11.63;6.65;;;10.30;99.90;;;;;;4922875;29;20349;-84
2023/02/21 07:42:59;;;;;;;9.07;6.53;;;10.20;99.90;;;;;;4920314;29;20212;-85
2023/02/21 07:45:27;;;;;;;9.68;6.90;;;10.20;99.90;;;;;;4924742;29;20252;-84
2023/02/21 07:47:54;;;;;;;6.65;5.45;;;10.20;99.90;;;;;;4924106;29;20216;-83
2023/02/21 07:50:22;;;;;;;7.00;5.70;;;10.30;99.90;;;;;;4926943;29;20211;-84
2023/02/21 07:52:49;;;;;;;6.53;5.38;;;10.30;99.90;;;;;;4922168;29;20212;-81
2023/02/21 07:55:16;;;;;;;8.80;6.50;;;10.30;99.90;;;;;;4925895;29;20212;-85
2023/02/21 07:57:44;;;;;;;6.05;4.72;;;10.30;99.90;;;;;;4915651;29;20243;-84
2023/02/21 08:00:12;;;;;;;8.25;5.65;;;10.30;99.90;;;;;;4920620;29;20200;-82
2023/02/21 08:02:39;;;;;;;5.82;4.43;;;10.30;99.90;;;;;;4920252;29;20444;-83
2023/02/21 08:05:07;;;;;;;7.45;5.00;;;10.20;99.90;;;;;;4923595;29;20564;-80
2023/02/21 08:07:34;;;;;;;5.97;5.38;;;10.30;99.90;;;;;;4920179;29;20216;-84
2023/02/21 08:10:03;;;;;;;8.32;5.30;;;10.40;99.90;;;;;;4925114;29;20260;-84
2023/02/21 08:12:30;;;;;;;8.60;4.45;;;10.30;99.90;;;;;;4930401;29;20235;-85
2023/02/21 08:14:57;;;;;;;5.60;4.03;;;10.40;99.90;;;;;;4928559;29;20212;-82
2023/02/21 08:17:25;;;;;;;5.13;4.63;;;10.40;99.90;;;;;;4923067;29;20540;-83
2023/02/21 08:19:52;;;;;;;6.53;5.28;;;10.40;99.90;;;;;;4927749;29;20219;-83
2023/02/21 08:22:18;;;;;;;5.97;5.00;;;10.50;99.90;;;;;;4934268;29;20241;-83
2023/02/21 08:24:48;;;;;;;5.60;4.07;;;10.50;99.90;;;;;;4921769;29;20212;-82
2023/02/21 08:27:16;;;;;;;5.50;4.50;;;10.50;99.90;;;;;;4927250;29;20256;-83
2023/02/21 08:29:44;;;;;;;5.57;3.70;;;10.50;99.90;;;;;;4931814;29;20366;-84
2023/02/21 08:32:10;;;;;;;6.80;4.90;;;10.30;99.90;;;;;;4927495;29;20238;-85
2023/02/21 08:34:38;;;;;;;8.38;4.50;;;10.30;99.90;;;;;;4923659;29;20295;-84
2023/02/21 08:37:13;;;;;;;4.40;4.00;;;10.40;99.90;;;;;;4926805;29;20472;-84
2023/02/21 08:39:44;;;;;;;5.88;3.65;;;10.30;99.90;;;;;;4929205;29;20258;-84
2023/02/21 08:42:12;;;;;;;4.55;4.15;;;10.40;99.90;;;;;;4920407;29;20208;-82
2023/02/21 08:44:42;;;;;;;5.07;4.25;;;10.40;99.90;;;;;;4922641;29;20254;-84
2023/02/21 08:47:10;;;;;;;5.20;4.47;;;10.50;99.90;;;;;;4940065;29;20189;-81
2023/02/21 08:49:41;;;;;;;4.85;3.45;;;10.50;99.90;;;;;;4928635;29;20219;-81
2023/02/21 08:52:10;;;;;;;5.07;3.30;;;10.60;99.90;;;;;;4933625;29;20204;-83
2023/02/21 08:54:37;;;;;;;4.93;3.85;;;10.90;99.90;;;;;;4926385;29;20212;-79
2023/02/21 08:57:04;;;;;;;3.85;3.38;;;11.10;99.90;;;;;;4929227;29;20211;-84
2023/02/21 08:59:32;;;;;;;3.38;3.08;;;11.00;99.90;;;;;;4934182;29;20408;-82
2023/02/21 09:02:02;;;;;;;3.63;3.17;;;11.00;99.90;;;;;;4930998;29;20270;-83
2023/02/21 09:04:29;;;;;;;3.42;3.13;;;10.90;99.90;;;;;;4932533;29;20220;-84
2023/02/21 09:06:56;;;;;;;3.40;3.10;;;10.90;99.90;;;;;;4931851;29;20428;-83
2023/02/21 09:09:24;;;;;;;3.40;3.10;;;10.90;99.90;;;;;;4930752;29;20549;-83
2023/02/21 09:11:50;;;;;;;3.97;3.58;;;10.80;99.90;;;;;;4938683;29;20212;-83
2023/02/21 09:14:17;;;;;;;2.67;2.47;;;10.90;99.90;;;;;;4931838;29;20212;-86
2023/02/21 09:16:44;;;;;;;3.28;3.08;;;10.80;99.90;;;;;;4937018;29;20219;-83
2023/02/21 09:19:13;;;;;;;3.50;3.05;;;11.00;99.90;;;;;;4919278;29;20344;-82
2023/02/21 09:21:45;;;;;;;2.58;2.30;;;11.00;99.90;;;;;;4924981;29;20213;-79
2023/02/21 09:24:13;;;;;;;4.82;3.25;;;10.90;99.90;;;;;;4932356;29;20219;-80
2023/02/21 09:26:39;;;;;;;2.70;2.50;;;10.90;99.90;;;;;;4928986;29;20215;-84
2023/02/21 09:29:06;;;;;;;5.93;3.00;;;11.00;99.90;;;;;;4923502;29;20220;-82
2023/02/21 09:31:33;;;;;;;2.40;2.20;;;11.20;99.90;;;;;;4926621;29;20263;-83
2023/02/21 09:34:00;;;;;;;3.17;2.50;;;11.30;99.90;;;;;;4923610;29;20215;-81
2023/02/21 09:36:27;;;;;;;2.70;2.50;;;11.20;99.90;;;;;;4931552;29;20523;-83
2023/02/21 09:38:54;;;;;;;3.08;2.88;;;11.20;99.90;;;;;;4921486;29;20556;-82
2023/02/21 09:41:24;;;;;;;3.10;2.80;;;11.30;99.90;;;;;;4925907;29;20497;-83
2023/02/21 09:43:53;;;;;;;2.50;2.28;;;11.40;99.90;;;;;;4919783;29;20512;-82
2023/02/21 09:46:36;;;;;;;2.45;2.25;;;11.70;99.90;;;;;;4924337;29;20256;-81
2023/02/21 09:49:10;;;;;;;3.28;2.72;;;11.70;99.90;;;;;;4919562;29;20216;-81
2023/02/21 09:51:40;;;;;;;2.63;2.42;;;11.80;99.90;;;;;;4924038;29;20252;-80
2023/02/21 09:54:18;;;;;;;2.25;2.05;;;12.00;99.90;;;;;;4920759;29;20267;-81
2023/02/21 09:56:45;;;;;;;2.13;1.98;;;12.20;99.90;;;;;;4926262;29;20540;-81
2023/02/21 09:59:13;;;;;;;2.20;2.00;;;12.30;99.90;;;;;;4923552;29;20813;-81
2023/02/21 10:02:09;;;;;;;4.50;3.13;;;12.10;99.90;;;;;;4927472;29;20200;-83
2023/02/21 10:04:44;;;;;;;4.22;2.50;;;12.40;99.90;;;;;;4941266;29;20207;-80
2023/02/21 10:07:35;;;;;;;3.22;2.53;;;12.20;99.90;;;;;;4940942;29;20200;-81
2023/02/21 10:10:28;;;;;;;2.88;2.67;;;11.90;99.90;;;;;;4938648;29;20208;-80
2023/02/21 10:13:13;;;;;;;3.05;1.98;;;11.80;99.90;;;;;;4914160;29;20205;-82
2023/02/21 10:15:46;;;;;;;2.08;1.85;;;11.90;99.90;;;;;;4936328;29;20500;-82
2023/02/21 10:18:28;;;;;;;2.60;1.80;;;12.20;99.90;;;;;;4921214;29;20228;-81
2023/02/21 10:21:03;;;;;;;2.25;2.05;;;12.50;99.90;;;;;;4923546;29;20234;-80
2023/02/21 10:23:41;;;;;;;3.30;2.65;;;12.50;99.90;;;;;;4925944;29;20226;-82
2023/02/21 10:26:12;;;;;;;2.00;1.80;;;12.30;99.90;;;;;;4937719;29;20224;-83
2023/02/21 10:28:40;;;;;;;1.98;1.80;;;12.10;99.90;;;;;;4933732;29;20201;-81
2023/02/21 10:31:22;;;;;;;2.20;2.00;;;12.10;99.90;;;;;;4933236;29;20213;-83
2023/02/21 10:33:50;;;;;;;2.00;1.70;;;12.00;99.90;;;;;;4935081;29;20204;-82
2023/02/21 10:36:20;;;;;;;2.00;1.70;;;12.00;99.90;;;;;;4934840;29;20201;-81
2023/02/21 10:38:58;;;;;;;2.67;2.00;;;11.90;99.90;;;;;;4943981;29;20225;-80
2023/02/21 10:41:28;;;;;;;3.63;2.08;;;11.80;99.90;;;;;;4945909;29;20207;-81
2023/02/21 10:44:02;;;;;;;2.50;2.30;;;11.70;99.90;;;;;;4948557;29;20255;-82
2023/02/21 10:46:36;;;;;;;4.15;2.63;;;11.50;99.90;;;;;;4926673;29;20267;-82
2023/02/21 10:49:30;;;;;;;2.97;2.47;;;11.50;99.90;;;;;;4938235;28;20252;-81
2023/02/21 10:52:13;;;;;;;2.22;1.98;;;11.10;99.90;;;;;;4938608;28;20207;-80
2023/02/21 10:54:40;;;;;;;2.42;2.15;;;10.60;99.90;;;;;;4950189;29;20208;-80
2023/02/21 10:57:10;;;;;;;2.63;2.40;;;10.30;99.90;;;;;;4953504;29;20228;-80
2023/02/21 10:59:41;;;;;;;4.57;2.72;;;10.30;99.90;;;;;;4938787;28;20211;-81
2023/02/21 11:02:31;;;;;;;4.53;3.55;;;10.30;99.90;;;;;;4949862;28;20313;-80
2023/02/21 11:05:15;;;;;;;4.22;3.85;;;10.30;99.90;;;;;;4930298;29;20241;-86
2023/02/21 11:08:00;;;;;;;3.97;3.33;;;10.50;99.90;;;;;;4925304;29;20573;-83
2023/02/21 11:10:30;;;;;;;3.42;3.13;;;10.60;99.90;;;;;;4920470;29;20228;-84
2023/02/21 11:13:18;;;;;;;5.90;3.65;;;10.80;99.90;;;;;;4928721;29;20358;-85
2023/02/21 11:15:46;;;;;;;4.35;3.95;;;10.90;99.90;;;;;;4926637;29;20448;-84
2023/02/21 11:18:15;;;;;;;4.18;3.63;;;10.90;99.90;;;;;;4930113;29;20274;-85
2023/02/21 11:20:42;;;;;;;5.25;3.08;;;11.20;99.90;;;;;;4923412;29;20276;-84
2023/02/21 11:23:47;;;;;;;4.20;3.80;;;11.30;99.90;;;;;;4922565;29;20208;-84
2023/02/21 11:26:15;;;;;;;3.15;2.85;;;11.60;99.90;;;;;;4914936;29;20441;-83
2023/02/21 11:28:44;;;;;;;2.70;2.50;;;11.90;99.90;;;;;;4925677;29;20251;-85
2023/02/21 11:31:19;;;;;;;2.17;1.98;;;12.00;99.90;;;;;;4925640;29;20231;-83
2023/02/21 11:33:58;;;;;;;2.50;2.22;;;12.20;99.90;;;;;;4930115;29;20230;-83
2023/02/21 11:36:29;;;;;;;2.00;1.80;;;12.20;99.90;;;;;;4930432;29;20207;-84
2023/02/21 11:39:31;;;;;;;1.90;1.70;;;12.20;99.90;;;;;;4921924;29;20239;-83
2023/02/21 11:42:23;;;;;;;2.10;1.95;;;12.10;99.90;;;;;;4924696;29;20232;-82
2023/02/21 11:45:25;;;;;;;1.90;1.73;;;12.10;99.90;;;;;;4919792;29;20252;-84
2023/02/21 11:47:57;;;;;;;3.05;1.80;;;12.10;99.90;;;;;;4918310;29;20210;-83
2023/02/21 11:50:31;;;;;;;1.92;1.80;;;12.10;99.90;;;;;;4922754;29;20212;-85
2023/02/21 11:53:14;;;;;;;1.70;1.35;;;12.10;99.90;;;;;;4921535;29;20512;-82
2023/02/21 11:55:48;;;;;;;2.90;2.70;;;12.10;99.90;;;;;;4931013;29;20212;-84
2023/02/21 11:58:40;;;;;;;1.92;1.83;;;12.20;99.90;;;;;;4922067;29;20224;-84
2023/02/21 12:01:16;;;;;;;1.38;1.27;;;12.30;99.90;;;;;;4921477;29;20261;-82
2023/02/21 12:04:01;;;;;;;2.63;2.05;;;12.60;99.90;;;;;;4919889;29;20211;-85
2023/02/21 12:06:34;;;;;;;2.10;1.95;;;13.10;99.90;;;;;;4919389;29;20202;-85
2023/02/21 12:09:09;;;;;;;1.83;1.73;;;13.30;99.90;;;;;;4920388;29;20213;-82
2023/02/21 12:11:39;;;;;;;1.52;1.35;;;13.00;99.90;;;;;;4917923;29;20213;-82
2023/02/21 12:14:30;;;;;;;2.47;1.40;;;12.90;99.90;;;;;;4917565;29;20215;-84
2023/02/21 12:17:16;;;;;;;1.45;1.35;;;12.60;99.90;;;;;;4923168;29;20201;-83
2023/02/21 12:20:15;;;;;;;1.70;1.38;;;12.30;99.90;;;;;;4938665;28;20215;-82
2023/02/21 12:23:20;;;;;;;1.50;1.38;;;12.20;99.90;;;;;;4955942;28;20192;-84
2023/02/21 12:26:06;;;;;;;1.33;1.23;;;12.40;99.90;;;;;;4938665;29;20180;-83
2023/02/21 12:28:58;;;;;;;1.60;1.48;;;12.70;99.90;;;;;;4940761;29;20209;-83
2023/02/21 12:31:50;;;;;;;2.38;1.63;;;12.90;99.90;;;;;;4929317;29;20209;-85
2023/02/21 12:34:54;;;;;;;1.42;1.33;;;12.90;99.90;;;;;;4925754;29;20209;-81
2023/02/21 12:37:42;;;;;;;1.70;1.50;;;12.60;99.90;;;;;;4916697;29;20201;-83
2023/02/21 12:40:31;;;;;;;1.52;1.15;;;12.60;99.90;;;;;;4923082;29;20238;-83
2023/02/21 12:43:04;;;;;;;1.63;1.42;;;12.60;99.90;;;;;;4930140;29;20464;-84
2023/02/21 12:45:51;;;;;;;1.73;1.15;;;12.80;99.90;;;;;;4930271;29;20202;-83
2023/02/21 12:48:35;;;;;;;1.77;1.50;;;12.90;99.90;;;;;;4925388;29;20197;-85
2023/02/21 12:51:07;;;;;;;1.25;1.17;;;12.80;99.90;;;;;;4931028;29;20289;-84
2023/02/21 12:53:50;;;;;;;1.20;1.10;;;12.50;99.90;;;;;;4924810;29;20255;-84
2023/02/21 12:56:30;;;;;;;1.30;1.20;;;12.50;99.90;;;;;;4924279;29;20251;-85
2023/02/21 12:59:07;;;;;;;1.20;0.77;;;12.60;99.90;;;;;;4925892;29;20283;-86
2023/02/21 13:01:40;;;;;;;2.10;1.20;;;12.50;99.90;;;;;;4919824;29;20702;-83
2023/02/21 13:04:17;;;;;;;1.25;1.13;;;12.30;99.90;;;;;;4929213;29;20453;-85
2023/02/21 13:06:53;;;;;;;0.82;0.82;;;12.30;99.90;;;;;;4926097;29;20275;-83
2023/02/21 13:09:35;;;;;;;1.25;1.13;;;12.20;99.90;;;;;;4924549;29;20213;-83
2023/02/21 13:12:16;;;;;;;0.70;0.70;;;12.20;99.90;;;;;;4924871;29;20270;-83
2023/02/21 13:14:46;;;;;;;1.15;0.90;;;12.20;99.90;;;;;;4933287;29;20210;-86
2023/02/21 13:17:15;;;;;;;0.95;0.85;;;12.40;99.90;;;;;;4923526;29;20225;-84
2023/02/21 13:20:16;;;;;;;2.25;1.08;;;12.50;99.90;;;;;;4935618;29;20544;-85
2023/02/21 13:26:40;;;;;;;1.60;1.20;;;12.30;99.90;;;;;;4925356;29;20228;-85
2023/02/21 13:29:25;;;;;;;1.17;1.00;;;12.10;99.90;;;;;;4920591;29;20212;-84
2023/02/21 13:32:02;;;;;;;1.15;1.02;;;12.10;99.90;;;;;;4922743;29;20196;-84
2023/02/21 13:34:35;;;;;;;2.80;1.75;;;12.00;99.90;;;;;;4927787;29;20209;-85
2023/02/21 13:37:07;;;;;;;1.80;1.05;;;11.90;99.90;;;;;;4924113;29;20612;-84
2023/02/21 13:39:38;;;;;;;1.35;1.20;;;11.80;99.90;;;;;;4924471;29;20454;-84
2023/02/21 13:42:14;;;;;;;1.10;1.00;;;11.80;99.90;;;;;;4925950;29;20212;-84
2023/02/21 13:44:44;;;;;;;1.55;1.27;;;11.80;99.90;;;;;;4933318;29;20326;-83
2023/02/21 13:47:20;;;;;;;1.02;1.00;;;11.80;99.90;;;;;;4928530;29;20217;-85
2023/02/21 13:49:52;;;;;;;1.75;0.95;;;11.80;99.90;;;;;;4933931;29;20207;-83
2023/02/21 13:52:22;;;;;;;1.92;1.55;;;11.70;99.90;;;;;;4934018;29;20507;-84
2023/02/21 13:55:14;;;;;;;1.40;1.10;;;11.90;99.90;;;;;;4932733;29;20267;-84
2023/02/21 13:57:53;;;;;;;2.13;1.50;;;11.80;99.90;;;;;;4934710;29;20216;-84
2023/02/21 14:00:26;;;;;;;1.30;1.20;;;11.70;99.90;;;;;;4927501;29;20231;-84
2023/02/21 14:02:58;;;;;;;1.95;1.45;;;11.80;99.90;;;;;;4930835;29;20201;-84
2023/02/21 14:05:45;;;;;;;2.20;1.52;;;11.80;99.90;;;;;;4936432;29;20203;-85
2023/02/21 14:08:30;;;;;;;1.17;1.10;;;11.90;99.90;;;;;;4933120;29;20205;-83
2023/02/21 14:10:58;;;;;;;1.05;1.00;;;11.90;99.90;;;;;;4932292;29;20220;-82
2023/02/21 14:13:49;;;;;;;1.52;1.02;;;11.90;99.90;;;;;;4933781;29;20218;-85
2023/02/21 14:16:23;;;;;;;1.40;1.30;;;12.00;99.90;;;;;;4936592;29;20204;-87
2023/02/21 14:19:08;;;;;;;1.73;1.50;;;12.10;99.90;;;;;;4937437;29;20239;-84
2023/02/21 14:21:38;;;;;;;1.40;1.30;;;12.30;99.90;;;;;;4937500;29;20301;-84
2023/02/21 14:24:19;;;;;;;2.50;1.75;;;12.40;99.90;;;;;;4925237;29;20208;-82
2023/02/21 14:26:52;;;;;;;2.95;1.67;;;12.60;99.90;;;;;;4926576;29;20673;-87
2023/02/21 14:29:35;;;;;;;1.30;1.20;;;12.70;99.90;;;;;;4932451;29;20547;-86
2023/02/21 14:32:02;;;;;;;2.15;1.95;;;12.80;99.90;;;;;;4925939;29;20240;-85
2023/02/21 14:34:54;;;;;;;2.38;1.88;;;12.80;99.90;;;;;;4932419;29;20496;-85
2023/02/21 14:37:36;;;;;;;1.40;1.30;;;12.80;99.90;;;;;;4928443;29;20213;-84
2023/02/21 14:40:08;;;;;;;1.60;1.45;;;12.60;99.90;;;;;;4927146;29;20263;-86
2023/02/21 14:42:44;;;;;;;2.47;2.28;;;12.50;99.90;;;;;;4934042;29;20342;-84
2023/02/21 14:45:11;;;;;;;1.92;1.70;;;12.50;99.90;;;;;;4933185;29;20332;-82
2023/02/21 14:48:03;;;;;;;2.67;2.47;;;12.20;99.90;;;;;;4944306;29;20224;-84
2023/02/21 14:51:15;;;;;;;3.20;2.53;;;12.10;99.90;;;;;;4950245;28;20217;-83
2023/02/21 14:53:48;;;;;;;2.40;2.08;;;12.00;99.90;;;;;;4919204;29;20192;-85
2023/02/21 14:56:34;;;;;;;3.15;2.75;;;11.90;99.90;;;;;;4936552;29;20197;-83
2023/02/21 14:59:07;;;;;;;1.70;1.60;;;12.00;99.90;;;;;;4932847;29;20235;-81
2023/02/21 15:01:53;;;;;;;2.13;1.88;;;12.00;99.90;;;;;;4941904;29;20211;-87
2023/02/21 15:04:29;;;;;;;1.80;1.17;;;12.00;99.90;;;;;;4937602;29;20209;-85
2023/02/21 15:07:19;;;;;;;1.30;0.80;;;12.00;99.90;;;;;;4928466;29;20209;-84
2023/02/21 15:10:05;;;;;;;2.08;1.20;;;11.90;99.90;;;;;;4937976;29;20216;-81
2023/02/21 15:12:38;;;;;;;0.77;0.77;;;11.90;99.90;;;;;;4936894;29;20271;-84
2023/02/21 15:15:13;;;;;;;2.45;0.93;;;11.80;99.90;;;;;;4935495;28;20188;-84
2023/02/21 15:17:40;;;;;;;0.82;0.82;;;11.70;99.90;;;;;;4936776;29;20262;-83
2023/02/21 15:20:16;;;;;;;1.20;1.10;;;11.60;99.90;;;;;;4930417;29;20680;-86
2023/02/21 15:22:43;;;;;;;3.25;1.33;;;11.70;99.90;;;;;;4929650;29;20203;-88
2023/02/21 15:25:14;;;;;;;1.70;1.27;;;11.70;99.90;;;;;;4939418;29;20264;-85
2023/02/21 15:27:47;;;;;;;1.30;1.08;;;11.60;99.90;;;;;;4937193;29;20215;-87
2023/02/21 15:30:30;;;;;;;1.70;1.60;;;11.50;99.90;;;;;;4932357;29;20271;-84
2023/02/21 15:33:19;;;;;;;1.20;1.10;;;11.40;99.90;;;;;;4941846;29;20282;-86
2023/02/21 15:35:56;;;;;;;3.10;1.75;;;11.40;99.90;;;;;;4924367;29;20216;-85
2023/02/21 15:38:39;;;;;;;2.15;1.95;;;11.50;99.90;;;;;;4930955;29;20294;-86
2023/02/21 15:41:13;;;;;;;7.18;2.75;;;11.60;99.90;;;;;;4916578;29;20256;-85
2023/02/21 15:43:52;;;;;;;2.25;2.05;;;11.70;99.90;;;;;;4924633;29;20217;-86